createdAt,value
2022-09-11T00:01:32.369Z,16.70
2022-09-11T00:03:59.373Z,16.60
2022-09-11T00:06:30.026Z,16.70
2022-09-11T00:09:00.704Z,16.70
2022-09-11T00:11:41.377Z,17.20
2022-09-11T00:14:13.712Z,17.50
2022-09-11T00:16:44.979Z,17.10
2022-09-11T00:19:17.375Z,17.20
2022-09-11T00:21:45.433Z,16.60
2022-09-11T00:24:12.597Z,17.30
2022-09-11T00:26:41.031Z,16.50
2022-09-11T00:29:08.470Z,16.80
2022-09-11T00:31:35.342Z,17.20
2022-09-11T00:34:02.140Z,17.10
2022-09-11T00:36:35.716Z,17.40
2022-09-11T00:39:03.316Z,17.40
2022-09-11T00:41:36.108Z,17.40
2022-09-11T00:44:23.661Z,17.10
2022-09-11T00:46:55.492Z,17.30
2022-09-11T00:49:46.323Z,17.00
2022-09-11T00:52:51.209Z,17.50
2022-09-11T00:55:23.084Z,17.30
2022-09-11T00:57:56.205Z,17.70
2022-09-11T01:00:23.093Z,17.10
2022-09-11T01:02:53.488Z,17.50
2022-09-11T01:05:24.935Z,17.40
2022-09-11T01:07:54.393Z,17.30
2022-09-11T01:10:33.500Z,17.20
2022-09-11T01:13:33.101Z,17.10
2022-09-11T01:16:33.390Z,16.70
2022-09-11T01:19:27.255Z,17.00
2022-09-11T01:22:07.278Z,16.50
2022-09-11T01:24:52.434Z,16.40
2022-09-11T01:28:26.025Z,17.20
2022-09-11T01:35:14.795Z,17.10
2022-09-11T01:38:20.750Z,17.00
2022-09-11T01:41:23.266Z,17.80
2022-09-11T01:44:07.776Z,17.20
2022-09-11T01:46:50.035Z,17.10
2022-09-11T01:49:36.224Z,17.40
2022-09-11T01:52:19.979Z,17.00
2022-09-11T01:58:55.987Z,16.80
2022-09-11T02:01:32.720Z,17.20
2022-09-11T02:04:18.633Z,16.90
2022-09-11T02:07:03.879Z,16.60
2022-09-11T02:09:41.460Z,16.50
2022-09-11T02:12:13.814Z,16.30
2022-09-11T02:14:44.111Z,16.40
2022-09-11T02:17:56.691Z,16.80
2022-09-11T02:20:23.456Z,16.70
2022-09-11T02:22:50.205Z,16.90
2022-09-11T02:25:17.812Z,16.70
2022-09-11T02:27:44.569Z,16.50
2022-09-11T02:30:13.730Z,17.20
2022-09-11T02:32:43.998Z,17.00
2022-09-11T02:35:11.664Z,16.80
2022-09-11T02:38:14.366Z,17.00
2022-09-11T02:41:08.558Z,16.80
2022-09-11T02:44:03.135Z,17.00
2022-09-11T02:46:58.867Z,17.20
2022-09-11T02:50:01.281Z,17.90
2022-09-11T02:52:47.611Z,17.40
2022-09-11T02:55:49.920Z,17.00
2022-09-11T02:58:26.732Z,17.20
2022-09-11T03:00:57.712Z,17.20
2022-09-11T03:03:24.474Z,17.20
2022-09-11T03:05:51.455Z,17.00
2022-09-11T03:08:18.526Z,16.80
2022-09-11T03:10:46.642Z,17.50
2022-09-11T03:13:14.773Z,17.50
2022-09-11T03:15:45.210Z,17.70
2022-09-11T03:18:15.578Z,17.60
2022-09-11T03:20:49.839Z,17.00
2022-09-11T03:23:16.579Z,16.70
2022-09-11T03:25:43.340Z,17.50
2022-09-11T03:28:10.817Z,17.30
2022-09-11T03:30:37.584Z,16.80
2022-09-11T03:33:05.036Z,16.80
2022-09-11T03:35:31.995Z,16.40
2022-09-11T03:37:58.975Z,16.40
2022-09-11T03:40:26.552Z,16.40
2022-09-11T03:42:53.532Z,16.60
2022-09-11T03:45:21.382Z,16.60
2022-09-11T03:47:48.417Z,16.60
2022-09-11T03:50:15.234Z,17.40
2022-09-11T03:52:43.344Z,16.90
2022-09-11T03:55:10.347Z,17.10
2022-09-11T03:57:41.300Z,17.40
2022-09-11T04:00:10.196Z,17.70
2022-09-11T04:02:36.952Z,17.30
2022-09-11T04:05:04.398Z,17.30
2022-09-11T04:07:31.443Z,17.60
2022-09-11T04:09:58.581Z,17.60
2022-09-11T04:12:25.720Z,17.00
2022-09-11T04:14:52.510Z,17.10
2022-09-11T04:17:19.341Z,16.80
2022-09-11T04:19:46.069Z,17.60
2022-09-11T04:22:12.798Z,17.90
2022-09-11T04:24:40.029Z,17.80
2022-09-11T04:27:06.784Z,17.60
2022-09-11T04:29:33.984Z,17.20
2022-09-11T04:32:01.010Z,16.80
2022-09-11T04:34:27.729Z,16.50
2022-09-11T04:36:55.403Z,16.40
2022-09-11T04:39:22.858Z,16.30
2022-09-11T04:41:49.612Z,16.30
2022-09-11T04:44:16.330Z,16.10
2022-09-11T04:46:43.075Z,16.10
2022-09-11T04:49:11.387Z,16.00
2022-09-11T04:51:39.329Z,16.30
2022-09-11T04:54:06.960Z,16.10
2022-09-11T04:56:37.997Z,16.10
2022-09-11T04:59:13.417Z,16.10
2022-09-11T05:01:40.610Z,16.40
2022-09-11T05:04:08.571Z,16.20
2022-09-11T05:06:37.895Z,17.00
2022-09-11T05:09:07.987Z,16.60
2022-09-11T05:11:35.559Z,16.60
2022-09-11T05:14:02.878Z,17.20
2022-09-11T05:16:31.010Z,17.80
2022-09-11T05:18:59.045Z,17.50
2022-09-11T05:21:27.645Z,17.90
2022-09-11T05:23:57.834Z,17.50
2022-09-11T05:26:31.924Z,17.90
2022-09-11T05:29:13.962Z,18.10
2022-09-11T05:31:41.563Z,17.80
2022-09-11T05:34:08.652Z,17.80
2022-09-11T05:36:39.479Z,16.70
2022-09-11T05:39:06.210Z,16.70
2022-09-11T05:41:33.210Z,17.00
2022-09-11T05:43:59.914Z,17.40
2022-09-11T05:46:26.823Z,17.20
2022-09-11T05:48:53.663Z,17.00
2022-09-11T05:51:22.295Z,16.50
2022-09-11T05:53:53.860Z,16.70
2022-09-11T05:56:23.918Z,16.60
2022-09-11T05:58:54.714Z,16.70
2022-09-11T06:01:26.971Z,16.40
2022-09-11T06:03:54.691Z,16.40
2022-09-11T06:06:23.221Z,16.70
2022-09-11T06:08:51.747Z,17.40
2022-09-11T06:11:20.666Z,17.30
2022-09-11T06:13:49.207Z,17.80
2022-09-11T06:16:20.450Z,17.70
2022-09-11T06:18:49.458Z,17.30
2022-09-11T06:21:20.386Z,17.20
2022-09-11T06:23:49.511Z,17.80
2022-09-11T06:26:21.198Z,17.40
2022-09-11T06:28:48.558Z,16.90
2022-09-11T06:31:18.504Z,16.90
2022-09-11T06:33:46.709Z,16.80
2022-09-11T06:36:17.299Z,16.90
2022-09-11T06:38:47.294Z,17.50
2022-09-11T06:41:16.729Z,17.70
2022-09-11T06:43:44.636Z,18.00
2022-09-11T06:46:14.865Z,17.40
2022-09-11T06:48:46.716Z,17.20
2022-09-11T06:51:17.331Z,17.40
2022-09-11T06:53:45.334Z,18.20
2022-09-11T06:56:15.229Z,18.40
2022-09-11T06:58:42.262Z,18.20
2022-09-11T07:01:12.992Z,18.50
2022-09-11T07:03:47.229Z,18.20
2022-09-11T07:06:15.824Z,18.50
2022-09-11T07:08:42.928Z,17.90
2022-09-11T07:11:14.114Z,17.80
2022-09-11T07:13:41.968Z,18.30
2022-09-11T07:16:13.352Z,18.60
2022-09-11T07:18:43.340Z,19.00
2022-09-11T07:21:22.884Z,20.50
2022-09-11T07:23:54.401Z,21.30
2022-09-11T07:26:24.487Z,19.30
2022-09-11T07:28:52.172Z,19.00
2022-09-11T07:31:32.895Z,18.70
2022-09-11T07:34:00.689Z,18.40
2022-09-11T07:36:30.669Z,19.10
2022-09-11T07:38:58.729Z,18.20
2022-09-11T07:41:27.612Z,19.30
2022-09-11T07:44:03.300Z,20.50
2022-09-11T07:46:31.068Z,20.30
2022-09-11T07:48:58.641Z,19.10
2022-09-11T07:51:26.763Z,19.60
2022-09-11T07:53:56.707Z,20.40
2022-09-11T07:56:25.775Z,20.20
2022-09-11T07:58:55.147Z,20.00
2022-09-11T08:01:29.468Z,19.90
2022-09-11T08:04:02.341Z,20.90
2022-09-11T08:06:33.219Z,19.70
2022-09-11T08:09:01.945Z,20.30
2022-09-11T08:11:31.754Z,20.00
2022-09-11T08:13:58.471Z,19.50
2022-09-11T08:16:27.660Z,20.40
2022-09-11T08:18:55.191Z,19.80
2022-09-11T08:21:23.807Z,19.60
2022-09-11T08:23:50.547Z,19.10
2022-09-11T08:26:24.711Z,20.20
2022-09-11T08:28:53.539Z,19.30
2022-09-11T08:31:25.579Z,20.30
2022-09-11T08:33:53.099Z,20.70
2022-09-11T08:36:20.462Z,20.20
2022-09-11T08:38:47.719Z,20.00
2022-09-11T08:41:41.231Z,19.70
2022-09-11T08:44:50.589Z,21.00
2022-09-11T08:47:22.746Z,21.70
2022-09-11T08:49:57.914Z,21.60
2022-09-11T08:52:24.690Z,20.70
2022-09-11T08:54:59.446Z,21.00
2022-09-11T08:57:54.580Z,20.10
2022-09-11T09:00:24.941Z,21.40
2022-09-11T09:03:22.584Z,21.60
2022-09-11T09:06:17.955Z,22.00
2022-09-11T09:09:17.220Z,22.30
2022-09-11T09:11:52.729Z,22.40
2022-09-11T09:14:42.342Z,22.20
2022-09-11T09:17:19.983Z,21.60
2022-09-11T09:19:56.771Z,21.50
2022-09-11T09:22:44.242Z,21.50
2022-09-11T09:25:21.311Z,21.20
2022-09-11T09:27:53.211Z,21.40
2022-09-11T09:30:27.439Z,20.80
2022-09-11T09:33:25.450Z,21.10
2022-09-11T09:35:53.221Z,21.10
2022-09-11T09:38:26.847Z,21.10
2022-09-11T09:41:31.660Z,20.90
2022-09-11T09:44:01.376Z,21.60
2022-09-11T09:46:41.653Z,21.50
2022-09-11T09:49:17.106Z,21.90
2022-09-11T09:51:44.132Z,21.80
2022-09-11T09:54:18.706Z,22.30
2022-09-11T09:56:57.467Z,22.40
2022-09-11T09:59:35.528Z,21.80
2022-09-11T10:02:02.416Z,21.90
2022-09-11T10:04:30.354Z,21.90
2022-09-11T10:07:11.279Z,22.00
2022-09-11T10:09:46.714Z,21.40
2022-09-11T10:12:20.404Z,21.50
2022-09-11T10:15:06.487Z,21.80
2022-09-11T10:17:38.264Z,22.00
2022-09-11T10:20:19.221Z,21.80
2022-09-11T10:22:46.530Z,22.10
2022-09-11T10:25:27.558Z,21.80
2022-09-11T10:28:04.633Z,22.10
2022-09-11T10:30:38.967Z,22.40
2022-09-11T10:33:18.485Z,22.50
2022-09-11T10:35:58.681Z,22.30
2022-09-11T10:38:36.945Z,22.40
2022-09-11T10:41:18.291Z,22.70
2022-09-11T10:44:04.221Z,23.30
2022-09-11T10:46:39.689Z,23.40
2022-09-11T10:49:06.398Z,23.00
2022-09-11T10:51:42.134Z,23.20
2022-09-11T10:54:52.095Z,22.30
2022-09-11T10:57:33.514Z,22.10
2022-09-11T11:00:12.530Z,22.10
2022-09-11T11:02:44.076Z,22.40
2022-09-11T11:05:21.689Z,22.80
2022-09-11T11:08:25.139Z,23.10
2022-09-11T11:11:16.811Z,23.20
2022-09-11T11:14:21.222Z,22.50
2022-09-11T11:17:03.926Z,23.30
2022-09-11T11:19:58.566Z,23.80
2022-09-11T11:22:49.355Z,25.20
2022-09-11T11:25:38.046Z,25.90
2022-09-11T11:29:02.366Z,26.20
2022-09-11T11:31:56.391Z,26.40
2022-09-11T11:34:54.968Z,26.70
2022-09-11T11:37:34.562Z,27.50
2022-09-11T11:40:36.646Z,27.60
2022-09-11T11:43:18.438Z,27.60
2022-09-11T11:45:55.757Z,27.40
2022-09-11T11:48:30.131Z,27.80
2022-09-11T11:51:03.223Z,27.70
2022-09-11T11:53:51.441Z,27.80
2022-09-11T11:56:54.956Z,27.70
2022-09-11T12:03:23.482Z,26.40
2022-09-11T12:05:53.555Z,26.70
2022-09-11T12:11:46.095Z,26.30
2022-09-11T12:17:54.746Z,26.90
2022-09-11T12:20:45.084Z,26.90
2022-09-11T12:23:32.302Z,27.20
2022-09-11T12:26:47.632Z,27.70
2022-09-11T12:29:57.232Z,28.20
2022-09-11T12:32:58.994Z,27.50
2022-09-11T12:37:05.641Z,26.50
2022-09-11T12:40:42.188Z,25.20
2022-09-11T12:43:35.722Z,24.70
2022-09-11T12:46:06.213Z,24.50
2022-09-11T12:48:38.799Z,24.10
2022-09-11T12:51:25.862Z,24.00
2022-09-11T12:54:02.976Z,23.80
2022-09-11T12:56:36.284Z,24.10
2022-09-11T12:59:09.367Z,24.20
2022-09-11T13:01:42.442Z,24.30
2022-09-11T13:04:09.231Z,25.30
2022-09-11T13:06:52.672Z,25.80
2022-09-11T13:09:27.863Z,25.70
2022-09-11T13:11:57.624Z,26.20
2022-09-11T13:14:30.269Z,26.40
2022-09-11T13:17:02.930Z,26.60
2022-09-11T13:19:39.219Z,26.70
2022-09-11T13:22:27.535Z,26.90
2022-09-11T13:25:19.072Z,27.20
2022-09-11T13:27:55.273Z,27.90
2022-09-11T13:30:24.319Z,27.20
2022-09-11T13:33:06.800Z,27.30
2022-09-11T13:35:34.541Z,27.20
2022-09-11T13:38:16.630Z,27.90
2022-09-11T13:40:58.004Z,27.20
2022-09-11T13:43:40.978Z,27.40
2022-09-11T13:46:16.912Z,28.20
2022-09-11T13:48:46.438Z,27.20
2022-09-11T13:51:16.435Z,27.20
2022-09-11T13:53:46.679Z,27.50
2022-09-11T13:56:54.940Z,27.60
2022-09-11T13:59:56.866Z,27.60
2022-09-11T14:02:35.736Z,27.90
2022-09-11T14:05:22.563Z,27.50
2022-09-11T14:08:07.706Z,28.50
2022-09-11T14:10:43.416Z,28.40
2022-09-11T14:13:16.175Z,28.10
2022-09-11T14:16:14.605Z,28.80
2022-09-11T14:18:48.178Z,29.10
2022-09-11T14:21:18.426Z,28.60
2022-09-11T14:23:55.891Z,29.00
2022-09-11T14:26:25.709Z,28.80
2022-09-11T14:28:55.655Z,28.50
2022-09-11T14:31:46.922Z,28.50
2022-09-11T14:34:23.175Z,28.70
2022-09-11T14:36:57.726Z,28.60
2022-09-11T14:39:39.725Z,29.10
2022-09-11T14:42:10.444Z,29.00
2022-09-11T14:44:40.235Z,29.40
2022-09-11T14:47:09.286Z,29.70
2022-09-11T14:49:36.012Z,29.50
2022-09-11T14:52:03.400Z,28.80
2022-09-11T14:54:33.345Z,28.60
2022-09-11T14:57:00.638Z,29.40
2022-09-11T14:59:30.043Z,28.70
2022-09-11T15:01:58.596Z,28.40
2022-09-11T15:04:25.800Z,28.70
2022-09-11T15:06:55.399Z,28.60
2022-09-11T15:09:24.121Z,29.10
2022-09-11T15:11:52.311Z,28.90
2022-09-11T15:14:38.065Z,28.80
2022-09-11T15:17:11.958Z,27.80
2022-09-11T15:19:38.972Z,27.70
2022-09-11T15:22:06.864Z,27.80
2022-09-11T15:24:34.176Z,27.90
2022-09-11T15:27:01.198Z,27.90
2022-09-11T15:29:31.550Z,28.70
2022-09-11T15:32:01.163Z,28.20
2022-09-11T15:34:31.606Z,28.70
2022-09-11T15:36:58.487Z,28.70
2022-09-11T15:39:25.610Z,28.10
2022-09-11T15:41:54.659Z,27.80
2022-09-11T15:44:25.406Z,27.10
2022-09-11T15:46:54.507Z,27.00
2022-09-11T15:49:23.507Z,26.90
2022-09-11T15:51:52.292Z,27.30
2022-09-11T15:54:19.187Z,27.70
2022-09-11T15:56:46.754Z,27.90
2022-09-11T15:59:17.239Z,28.30
2022-09-11T16:01:44.469Z,27.80
2022-09-11T16:04:19.234Z,28.60
2022-09-11T16:06:48.335Z,29.10
2022-09-11T16:09:28.102Z,28.50
2022-09-11T16:11:55.830Z,27.50
2022-09-11T16:14:32.999Z,27.20
2022-09-11T16:17:02.230Z,28.40
2022-09-11T16:19:30.078Z,28.20
2022-09-11T16:22:00.409Z,27.70
2022-09-11T16:24:30.837Z,26.90
2022-09-11T16:26:57.721Z,27.00
2022-09-11T16:29:42.880Z,27.10
2022-09-11T16:32:27.810Z,26.40
2022-09-11T16:34:56.006Z,25.50
2022-09-11T16:37:22.787Z,25.10
2022-09-11T16:39:50.769Z,25.20
2022-09-11T16:42:21.655Z,24.40
2022-09-11T16:44:49.875Z,23.90
2022-09-11T16:47:17.805Z,24.40
2022-09-11T16:50:06.108Z,23.90
2022-09-11T16:52:32.366Z,24.10
2022-09-11T16:54:59.454Z,23.90
2022-09-11T16:57:27.338Z,23.60
2022-09-11T16:59:54.283Z,23.40
2022-09-11T17:02:21.050Z,23.40
2022-09-11T17:04:47.990Z,23.40
2022-09-11T17:07:14.743Z,23.40
2022-09-11T17:09:42.875Z,23.20
2022-09-11T17:12:10.491Z,23.50
2022-09-11T17:14:37.480Z,23.50
2022-09-11T17:17:04.602Z,23.70
2022-09-11T17:19:31.445Z,23.70
2022-09-11T17:21:59.096Z,23.50
2022-09-11T17:24:25.956Z,23.50
2022-09-11T17:26:52.781Z,23.10
2022-09-11T17:29:20.114Z,22.90
2022-09-11T17:31:46.980Z,22.70
2022-09-11T17:34:14.649Z,23.20
2022-09-11T17:36:43.206Z,23.10
2022-09-11T17:39:10.108Z,23.20
2022-09-11T17:41:36.956Z,22.80
2022-09-11T17:44:07.443Z,22.60
2022-09-11T17:46:35.837Z,22.30
2022-09-11T17:49:02.664Z,22.30
2022-09-11T17:51:29.493Z,22.30
2022-09-11T17:53:58.523Z,22.70
2022-09-11T17:56:32.579Z,22.20
2022-09-11T17:59:00.480Z,22.40
2022-09-11T18:01:29.091Z,22.30
2022-09-11T18:03:58.734Z,21.40
2022-09-11T18:06:36.108Z,21.30
2022-09-11T18:09:13.684Z,21.30
2022-09-11T18:11:43.144Z,21.40
2022-09-11T18:14:11.359Z,21.50
2022-09-11T18:16:38.479Z,21.50
2022-09-11T18:19:06.136Z,21.70
2022-09-11T18:21:38.265Z,21.70
2022-09-11T18:24:07.551Z,21.70
2022-09-11T18:26:44.059Z,21.40
2022-09-11T18:29:54.474Z,21.40
2022-09-11T18:35:21.790Z,21.50
2022-09-11T18:37:56.123Z,21.50
2022-09-11T18:43:24.880Z,21.40
2022-09-11T18:45:52.534Z,21.00
2022-09-11T18:48:43.017Z,21.10
2022-09-11T18:52:00.378Z,21.40
2022-09-11T18:55:15.100Z,21.20
2022-09-11T18:58:27.348Z,21.20
2022-09-11T19:04:34.928Z,20.50
2022-09-11T19:13:35.836Z,20.40
2022-09-11T19:16:22.965Z,20.40
2022-09-11T19:18:50.206Z,20.40
2022-09-11T19:21:23.184Z,20.50
2022-09-11T19:23:55.838Z,20.30
2022-09-11T19:26:29.898Z,20.60
2022-09-11T19:28:57.492Z,20.50
2022-09-11T19:31:28.868Z,20.40
2022-09-11T19:34:03.704Z,20.20
2022-09-11T19:36:33.584Z,19.90
2022-09-11T19:39:01.122Z,20.10
2022-09-11T19:41:37.445Z,20.00
2022-09-11T19:44:06.706Z,20.00
2022-09-11T19:46:34.870Z,19.90
2022-09-11T19:49:05.504Z,19.90
2022-09-11T19:51:36.576Z,20.20
2022-09-11T19:54:05.165Z,20.30
2022-09-11T19:56:35.446Z,20.50
2022-09-11T19:59:02.656Z,20.60
2022-09-11T20:01:30.731Z,20.30
2022-09-11T20:04:00.513Z,20.40
2022-09-11T20:06:31.092Z,20.40
2022-09-11T20:09:20.141Z,20.40
2022-09-11T20:11:46.059Z,20.60
2022-09-11T20:14:12.788Z,20.60
2022-09-11T20:16:39.520Z,20.70
2022-09-11T20:19:06.521Z,20.60
2022-09-11T20:21:35.996Z,20.90
2022-09-11T20:24:05.197Z,20.80
2022-09-11T20:26:32.547Z,20.90
2022-09-11T20:29:06.975Z,21.10
2022-09-11T20:31:46.440Z,20.90
2022-09-11T20:34:17.592Z,20.70
2022-09-11T20:36:44.929Z,20.60
2022-09-11T20:39:15.449Z,20.70
2022-09-11T20:41:42.788Z,20.70
2022-09-11T20:44:11.229Z,20.80
2022-09-11T20:46:38.062Z,20.80
2022-09-11T20:49:05.422Z,20.90
2022-09-11T20:51:34.570Z,21.00
2022-09-11T20:54:01.640Z,21.00
2022-09-11T20:56:28.597Z,21.00
2022-09-11T20:58:56.295Z,20.60
2022-09-11T21:01:34.324Z,20.90
2022-09-11T21:04:03.968Z,21.00
2022-09-11T21:06:33.373Z,20.80
2022-09-11T21:09:06.004Z,20.50
2022-09-11T21:11:33.303Z,20.70
2022-09-11T21:14:00.501Z,21.00
2022-09-11T21:16:27.917Z,20.90
2022-09-11T21:18:58.002Z,20.90
2022-09-11T21:21:27.132Z,20.70
2022-09-11T21:24:01.143Z,20.40
2022-09-11T21:26:28.846Z,20.50
2022-09-11T21:29:01.396Z,20.80
2022-09-11T21:31:29.041Z,20.70
2022-09-11T21:33:55.860Z,20.80
2022-09-11T21:36:22.796Z,21.00
2022-09-11T21:38:49.748Z,21.10
2022-09-11T21:41:16.551Z,21.10
2022-09-11T21:43:43.348Z,20.90
2022-09-11T21:46:10.203Z,21.00
2022-09-11T21:48:40.335Z,20.90
2022-09-11T21:51:18.753Z,21.10
2022-09-11T21:53:47.585Z,20.70
2022-09-11T21:56:24.849Z,20.70
2022-09-11T21:58:52.635Z,20.60
2022-09-11T22:01:21.379Z,20.80
2022-09-11T22:03:48.259Z,20.90
2022-09-11T22:06:15.771Z,20.80
2022-09-11T22:08:46.959Z,20.60
2022-09-11T22:11:15.145Z,20.90
2022-09-11T22:13:42.630Z,20.60
2022-09-11T22:16:18.240Z,20.60
2022-09-11T22:18:50.534Z,20.50
2022-09-11T22:21:18.283Z,20.40
2022-09-11T22:23:45.172Z,20.50
2022-09-11T22:26:18.619Z,20.40
2022-09-11T22:28:45.834Z,20.40
2022-09-11T22:31:24.164Z,20.50
2022-09-11T22:33:52.683Z,20.50
2022-09-11T22:36:27.239Z,20.50
2022-09-11T22:38:54.340Z,20.70
2022-09-11T22:41:22.071Z,20.50
2022-09-11T22:43:50.003Z,20.40
2022-09-11T22:46:19.940Z,20.40
2022-09-11T22:48:47.239Z,20.40
2022-09-11T22:51:13.976Z,20.20
2022-09-11T22:53:40.947Z,20.50
2022-09-11T22:56:08.043Z,20.50
2022-09-11T22:58:35.594Z,20.40
2022-09-11T23:01:03.835Z,20.30
2022-09-11T23:03:30.819Z,20.20
2022-09-11T23:06:18.758Z,19.90
2022-09-11T23:08:46.904Z,20.20
2022-09-11T23:11:19.580Z,20.20
2022-09-11T23:13:48.385Z,20.00
2022-09-11T23:16:19.706Z,20.10
2022-09-11T23:18:47.540Z,20.20
2022-09-11T23:21:15.033Z,20.10
2022-09-11T23:23:42.739Z,20.10
2022-09-11T23:26:14.102Z,20.10
2022-09-11T23:28:41.437Z,20.10
2022-09-11T23:31:18.654Z,20.20
2022-09-11T23:33:45.876Z,20.20
2022-09-11T23:36:14.795Z,20.10
2022-09-11T23:38:45.738Z,20.20
2022-09-11T23:41:12.648Z,20.20
2022-09-11T23:43:39.403Z,20.30
2022-09-11T23:46:06.415Z,20.40
2022-09-11T23:48:33.155Z,20.50
2022-09-11T23:51:01.043Z,20.50
2022-09-11T23:53:28.947Z,20.50
2022-09-11T23:55:58.833Z,20.40
2022-09-11T23:58:25.717Z,20.30
